createdAt,value
2019-01-17T00:00:55.515Z,16.87
2019-01-17T00:03:43.103Z,23.70
2019-01-17T00:06:30.735Z,17.73
2019-01-17T00:09:34.796Z,17.97
2019-01-17T00:12:26.600Z,23.70
2019-01-17T00:15:12.325Z,17.90
2019-01-17T00:17:52.106Z,20.53
2019-01-17T00:20:50.121Z,16.73
2019-01-17T00:23:46.070Z,18.07
2019-01-17T00:26:26.628Z,23.40
2019-01-17T00:29:24.739Z,17.60
2019-01-17T00:32:12.209Z,19.20
2019-01-17T00:34:53.492Z,19.17
2019-01-17T00:37:37.186Z,18.10
2019-01-17T00:40:34.635Z,22.33
2019-01-17T00:43:22.474Z,19.10
2019-01-17T00:46:20.593Z,17.53
2019-01-17T00:49:12.376Z,14.80
2019-01-17T00:52:07.397Z,20.60
2019-01-17T00:54:51.616Z,18.13
2019-01-17T00:57:32.311Z,16.17
2019-01-17T01:00:20.084Z,23.03
2019-01-17T01:03:15.287Z,14.70
2019-01-17T01:05:57.912Z,17.10
2019-01-17T01:08:49.996Z,16.77
2019-01-17T01:11:30.412Z,18.23
2019-01-17T01:14:20.529Z,15.30
2019-01-17T01:17:15.239Z,17.10
2019-01-17T01:19:54.883Z,18.30
2019-01-17T01:22:49.615Z,15.13
2019-01-17T01:25:38.527Z,17.97
2019-01-17T01:28:23.543Z,20.47
2019-01-17T01:31:24.804Z,16.23
2019-01-17T01:34:12.222Z,16.37
2019-01-17T01:36:59.667Z,17.90
2019-01-17T01:39:51.076Z,18.70
2019-01-17T01:42:36.574Z,14.80
2019-01-17T01:45:32.036Z,15.27
2019-01-17T01:48:26.965Z,19.83
2019-01-17T01:51:28.284Z,18.40
2019-01-17T01:53:58.140Z,18.20
2019-01-17T01:56:28.077Z,15.50
2019-01-17T01:58:58.044Z,13.83
2019-01-17T02:01:28.049Z,16.80
2019-01-17T02:03:58.105Z,14.40
2019-01-17T02:06:27.994Z,23.80
2019-01-17T02:08:57.954Z,16.20
2019-01-17T02:11:27.935Z,19.30
2019-01-17T02:13:57.953Z,17.83
2019-01-17T02:16:27.780Z,18.97
2019-01-17T02:18:57.729Z,18.77
2019-01-17T02:21:27.599Z,17.60
2019-01-17T02:23:57.556Z,15.13
2019-01-17T02:26:27.550Z,16.80
2019-01-17T02:28:57.471Z,22.50
2019-01-17T02:31:27.460Z,16.47
2019-01-17T02:33:57.421Z,20.63
2019-01-17T02:36:27.397Z,15.90
2019-01-17T02:38:57.379Z,17.40
2019-01-17T02:41:27.430Z,14.93
2019-01-17T02:43:57.368Z,17.20
2019-01-17T02:46:27.357Z,15.40
2019-01-17T02:48:57.267Z,13.00
2019-01-17T02:51:27.338Z,14.27
2019-01-17T02:53:57.370Z,14.40
2019-01-17T02:56:27.318Z,16.27
2019-01-17T02:58:58.221Z,21.70
2019-01-17T03:01:28.182Z,15.97
2019-01-17T03:03:58.121Z,14.70
2019-01-17T03:06:27.979Z,13.93
2019-01-17T03:08:57.847Z,13.10
2019-01-17T03:11:27.896Z,17.20
2019-01-17T03:13:57.765Z,15.20
2019-01-17T03:16:27.652Z,13.67
2019-01-17T03:18:57.531Z,12.80
2019-01-17T03:21:27.523Z,13.83
2019-01-17T03:23:57.375Z,12.47
2019-01-17T03:26:27.337Z,14.30
2019-01-17T03:28:57.192Z,12.37
2019-01-17T03:31:27.146Z,15.97
2019-01-17T03:33:57.217Z,13.03
2019-01-17T03:36:27.187Z,15.20
2019-01-17T03:38:57.061Z,11.53
2019-01-17T03:41:26.998Z,11.77
2019-01-17T03:43:56.971Z,11.00
2019-01-17T03:46:27.432Z,11.60
2019-01-17T03:48:58.347Z,8.87
2019-01-17T03:51:28.595Z,9.00
2019-01-17T03:53:58.436Z,9.63
2019-01-17T03:56:28.307Z,8.73
2019-01-17T03:58:58.311Z,8.07
2019-01-17T04:01:28.201Z,9.80
2019-01-17T04:03:58.153Z,8.77
2019-01-17T04:10:15.871Z,7.10
2019-01-17T04:12:45.796Z,7.10
2019-01-17T04:15:15.767Z,7.27
2019-01-17T04:17:45.700Z,8.07
2019-01-17T04:20:17.355Z,6.23
2019-01-17T04:22:47.284Z,6.67
2019-01-17T04:25:17.276Z,6.17
2019-01-17T04:27:47.116Z,8.53
2019-01-17T04:30:19.828Z,6.20
2019-01-17T04:32:49.687Z,6.77
2019-01-17T04:35:19.653Z,7.50
2019-01-17T04:37:49.573Z,6.73
2019-01-17T04:40:19.444Z,6.87
2019-01-17T04:42:49.277Z,5.00
2019-01-17T04:45:19.238Z,6.63
2019-01-17T04:47:49.196Z,8.40
2019-01-17T04:50:19.098Z,6.47
2019-01-17T04:52:49.050Z,6.07
2019-01-17T04:55:19.008Z,5.90
2019-01-17T04:57:48.865Z,6.47
2019-01-17T05:00:20.306Z,7.17
2019-01-17T05:02:50.255Z,6.07
2019-01-17T05:05:20.227Z,6.80
2019-01-17T05:07:50.156Z,8.30
2019-01-17T05:10:20.203Z,6.03
2019-01-17T05:12:50.167Z,7.40
2019-01-17T05:15:20.799Z,6.40
2019-01-17T05:17:50.651Z,7.50
2019-01-17T05:20:20.643Z,8.73
2019-01-17T05:22:50.606Z,6.23
2019-01-17T05:25:20.540Z,7.23
2019-01-17T05:27:50.658Z,6.80
2019-01-17T05:30:20.741Z,6.17
2019-01-17T05:32:50.843Z,6.50
2019-01-17T05:35:20.662Z,6.03
2019-01-17T05:37:50.632Z,7.30
2019-01-17T05:40:20.847Z,5.13
2019-01-17T05:42:51.676Z,6.50
2019-01-17T05:45:21.784Z,6.97
2019-01-17T05:47:51.735Z,8.03
2019-01-17T05:50:21.796Z,8.50
2019-01-17T05:52:51.734Z,8.40
2019-01-17T05:55:22.533Z,8.60
2019-01-17T05:57:52.410Z,9.43
2019-01-17T06:00:22.335Z,10.93
2019-01-17T06:02:52.882Z,10.90
2019-01-17T06:05:22.955Z,11.47
2019-01-17T06:07:57.940Z,10.70
2019-01-17T06:10:28.004Z,11.13
2019-01-17T06:12:58.220Z,9.03
2019-01-17T06:15:28.568Z,10.70
2019-01-17T06:17:58.607Z,14.23
2019-01-17T06:20:28.541Z,10.50
2019-01-17T06:22:58.451Z,9.20
2019-01-17T06:25:28.433Z,8.87
2019-01-17T06:27:58.464Z,8.70
2019-01-17T06:30:28.378Z,9.33
2019-01-17T06:32:58.428Z,13.20
2019-01-17T06:35:31.134Z,11.07
2019-01-17T06:38:01.127Z,11.07
2019-01-17T06:40:32.348Z,9.63
2019-01-17T06:43:02.282Z,8.70
2019-01-17T06:45:32.138Z,9.77
2019-01-17T06:48:02.003Z,10.17
2019-01-17T06:50:32.049Z,16.17
2019-01-17T06:53:01.984Z,13.50
2019-01-17T06:55:34.549Z,13.33
2019-01-17T06:58:03.370Z,11.43
2019-01-17T07:00:33.195Z,9.87
2019-01-17T07:03:03.164Z,9.10
2019-01-17T07:05:33.198Z,12.97
2019-01-17T07:08:03.207Z,12.93
2019-01-17T07:10:33.049Z,11.00
2019-01-17T07:13:03.011Z,10.97
2019-01-17T07:15:33.738Z,12.83
2019-01-17T07:18:03.758Z,9.20
2019-01-17T07:20:33.605Z,10.57
2019-01-17T07:23:03.472Z,7.50
2019-01-17T07:25:33.468Z,11.93
2019-01-17T07:28:03.990Z,9.50
2019-01-17T07:30:33.870Z,14.03
2019-01-17T07:33:03.852Z,14.07
2019-01-17T07:35:33.820Z,14.93
2019-01-17T07:38:04.223Z,13.77
2019-01-17T07:40:34.137Z,9.80
2019-01-17T07:43:04.047Z,13.67
2019-01-17T07:45:34.885Z,10.00
2019-01-17T07:48:04.818Z,9.97
2019-01-17T07:50:35.460Z,11.50
2019-01-17T07:53:05.512Z,10.20
2019-01-17T07:55:35.407Z,12.00
2019-01-17T07:58:05.540Z,8.63
2019-01-17T08:00:35.603Z,13.47
2019-01-17T08:03:05.522Z,11.23
2019-01-17T08:05:35.618Z,12.13
2019-01-17T08:08:07.459Z,12.73
2019-01-17T08:10:38.360Z,9.30
2019-01-17T08:13:08.448Z,10.90
2019-01-17T08:15:38.375Z,11.00
2019-01-17T08:18:09.155Z,10.00
2019-01-17T08:20:39.055Z,14.13
2019-01-17T08:23:08.987Z,9.77
2019-01-17T08:25:38.930Z,12.00
2019-01-17T08:28:09.121Z,9.77
2019-01-17T08:30:39.098Z,9.53
2019-01-17T08:33:09.088Z,9.37
2019-01-17T08:35:39.198Z,12.00
2019-01-17T08:38:09.430Z,10.13
2019-01-17T08:40:39.297Z,8.27
2019-01-17T08:43:09.196Z,9.00
2019-01-17T08:45:39.160Z,8.97
2019-01-17T08:48:09.076Z,10.33
2019-01-17T08:50:39.004Z,15.93
2019-01-17T08:53:09.159Z,9.50
2019-01-17T08:55:39.028Z,8.57
2019-01-17T08:58:10.953Z,9.13
2019-01-17T09:00:42.176Z,9.87
2019-01-17T09:03:18.023Z,10.03
2019-01-17T09:05:49.454Z,9.20
2019-01-17T09:08:20.023Z,8.70
2019-01-17T09:10:49.929Z,8.30
2019-01-17T09:13:19.856Z,8.60
2019-01-17T09:15:49.784Z,7.80
2019-01-17T09:18:19.723Z,9.20
2019-01-17T09:20:49.684Z,9.67
2019-01-17T09:23:19.625Z,11.50
2019-01-17T09:25:49.500Z,9.40
2019-01-17T09:28:19.339Z,9.23
2019-01-17T09:30:49.291Z,8.80
2019-01-17T09:33:19.230Z,13.93
2019-01-17T09:35:49.346Z,6.60
2019-01-17T09:38:19.213Z,8.07
2019-01-17T09:40:49.196Z,9.83
2019-01-17T09:43:19.259Z,8.57
2019-01-17T09:45:49.293Z,10.17
2019-01-17T09:48:19.199Z,10.43
2019-01-17T09:50:49.091Z,9.00
2019-01-17T09:53:18.945Z,11.50
2019-01-17T09:55:48.923Z,8.37
2019-01-17T09:58:19.165Z,10.47
2019-01-17T10:00:49.492Z,9.07
2019-01-17T10:03:20.890Z,8.30
2019-01-17T10:05:50.890Z,9.67
2019-01-17T10:08:20.947Z,10.60
2019-01-17T10:10:50.815Z,10.10
2019-01-17T10:13:22.386Z,11.10
2019-01-17T10:16:25.735Z,12.77
2019-01-17T10:19:32.270Z,8.53
2019-01-17T10:22:15.431Z,10.17
2019-01-17T10:25:09.127Z,11.53
2019-01-17T10:28:26.411Z,13.73
2019-01-17T10:31:28.477Z,13.87
2019-01-17T10:34:23.680Z,10.07
2019-01-17T10:37:30.706Z,12.07
2019-01-17T10:40:29.233Z,9.17
2019-01-17T10:43:16.010Z,12.03
2019-01-17T10:46:30.078Z,8.40
2019-01-17T10:49:38.583Z,12.40
2019-01-17T10:52:52.807Z,12.37
2019-01-17T10:56:27.752Z,14.77
2019-01-17T10:59:21.187Z,11.87
2019-01-17T11:02:29.331Z,12.37
2019-01-17T11:06:02.284Z,12.07
2019-01-17T11:09:10.823Z,10.63
2019-01-17T11:12:28.868Z,11.03
2019-01-17T11:15:32.210Z,13.03
2019-01-17T11:18:30.989Z,13.43
2019-01-17T11:21:41.389Z,14.43
2019-01-17T11:24:18.929Z,10.97
2019-01-17T11:27:03.567Z,10.17
2019-01-17T11:29:44.041Z,10.57
2019-01-17T11:32:49.571Z,8.67
2019-01-17T11:35:58.139Z,7.23
2019-01-17T11:39:18.627Z,7.70
2019-01-17T11:42:19.407Z,6.77
2019-01-17T11:45:08.091Z,7.10
2019-01-17T11:48:34.703Z,9.97
2019-01-17T11:51:21.989Z,8.77
2019-01-17T11:54:33.698Z,7.90
2019-01-17T11:58:02.971Z,9.73
2019-01-17T12:01:20.305Z,8.80
2019-01-17T12:04:12.565Z,8.07
2019-01-17T12:06:42.471Z,8.90
2019-01-17T12:09:12.320Z,10.93
2019-01-17T12:11:42.393Z,8.77
2019-01-17T12:14:12.339Z,7.40
2019-01-17T12:16:42.204Z,8.90
2019-01-17T12:19:12.166Z,9.07
2019-01-17T12:21:41.996Z,10.50
2019-01-17T12:24:11.925Z,9.77
2019-01-17T12:26:47.406Z,9.53
2019-01-17T12:29:13.474Z,11.43
2019-01-17T12:31:43.409Z,10.50
2019-01-17T12:34:13.409Z,9.33
2019-01-17T12:36:43.295Z,9.77
2019-01-17T12:39:13.916Z,11.07
2019-01-17T12:41:43.800Z,11.13
2019-01-17T12:44:13.700Z,9.00
2019-01-17T12:46:44.108Z,8.77
2019-01-17T12:49:14.052Z,22.33
2019-01-17T12:51:43.996Z,10.97
2019-01-17T12:54:13.879Z,9.53
2019-01-17T12:56:45.706Z,10.70
2019-01-17T12:59:16.056Z,14.33
2019-01-17T13:01:50.517Z,13.83
2019-01-17T13:04:20.867Z,11.93
2019-01-17T13:06:50.805Z,10.27
2019-01-17T13:09:20.700Z,10.27
2019-01-17T13:11:50.712Z,10.13
2019-01-17T13:14:21.221Z,10.47
2019-01-17T13:16:51.185Z,9.57
2019-01-17T13:19:21.173Z,10.80
2019-01-17T13:21:51.231Z,11.37
2019-01-17T13:24:22.772Z,9.13
2019-01-17T13:26:52.755Z,9.20
2019-01-17T13:29:23.272Z,11.30
2019-01-17T13:31:53.284Z,9.50
2019-01-17T13:34:23.304Z,10.67
2019-01-17T13:36:53.202Z,10.07
2019-01-17T13:39:23.213Z,8.07
2019-01-17T13:41:53.097Z,11.90
2019-01-17T13:44:23.163Z,9.00
2019-01-17T13:46:53.086Z,9.00
2019-01-17T13:49:23.021Z,12.70
2019-01-17T13:51:52.881Z,10.07
2019-01-17T13:54:22.759Z,9.67
2019-01-17T13:56:52.685Z,10.10
2019-01-17T13:59:22.629Z,8.80
2019-01-17T14:01:52.538Z,7.03
2019-01-17T14:04:22.671Z,7.63
2019-01-17T14:06:52.764Z,8.57
2019-01-17T14:09:22.707Z,5.97
2019-01-17T14:11:52.539Z,5.37
2019-01-17T14:14:22.490Z,4.23
2019-01-17T14:16:52.339Z,5.03
2019-01-17T14:19:22.329Z,3.87
2019-01-17T14:21:52.254Z,3.10
2019-01-17T14:24:22.199Z,3.53
2019-01-17T14:26:52.081Z,4.30
2019-01-17T14:29:22.055Z,3.67
2019-01-17T14:31:51.895Z,4.80
2019-01-17T14:34:22.349Z,3.60
2019-01-17T14:36:54.949Z,2.97
2019-01-17T14:39:24.927Z,4.13
2019-01-17T14:41:56.843Z,3.67
2019-01-17T14:44:27.065Z,2.93
2019-01-17T14:46:56.969Z,3.40
2019-01-17T14:49:26.847Z,3.37
2019-01-17T14:51:57.089Z,2.67
2019-01-17T14:54:27.816Z,3.77
2019-01-17T14:56:58.532Z,4.50
2019-01-17T14:59:29.192Z,4.47
2019-01-17T15:01:59.155Z,5.10
2019-01-17T15:04:30.520Z,4.90
2019-01-17T15:07:00.467Z,2.80
2019-01-17T15:09:30.501Z,2.60
2019-01-17T15:12:00.508Z,3.10
2019-01-17T15:14:30.433Z,2.50
2019-01-17T15:17:00.301Z,2.83
2019-01-17T15:19:32.793Z,2.30
2019-01-17T15:22:02.719Z,2.40
2019-01-17T15:24:32.575Z,2.20
2019-01-17T15:27:02.621Z,2.70
2019-01-17T15:29:32.477Z,2.63
2019-01-17T15:32:02.499Z,2.40
2019-01-17T15:34:32.333Z,2.70
2019-01-17T15:37:02.323Z,3.10
2019-01-17T15:39:32.249Z,2.80
2019-01-17T15:42:02.206Z,3.30
2019-01-17T15:44:32.110Z,4.87
2019-01-17T15:47:14.380Z,4.20
2019-01-17T15:49:44.416Z,3.20
2019-01-17T15:52:14.309Z,3.97
2019-01-17T15:54:44.304Z,2.70
2019-01-17T15:57:17.184Z,3.00
2019-01-17T15:59:47.217Z,3.50
2019-01-17T16:02:17.260Z,3.43
2019-01-17T16:04:47.290Z,3.63
2019-01-17T16:07:17.204Z,3.63
2019-01-17T16:09:47.170Z,4.53
2019-01-17T16:12:17.223Z,5.13
2019-01-17T16:14:47.170Z,4.60
2019-01-17T16:17:17.119Z,6.57
2019-01-17T16:19:47.098Z,5.10
2019-01-17T16:22:17.025Z,5.43
2019-01-17T16:24:47.025Z,6.10
2019-01-17T16:27:17.020Z,6.70
2019-01-17T16:29:46.964Z,7.00
2019-01-17T16:32:18.400Z,7.93
2019-01-17T16:34:48.342Z,7.63
2019-01-17T16:37:18.214Z,8.33
2019-01-17T16:39:48.152Z,9.80
2019-01-17T16:42:18.183Z,10.30
2019-01-17T16:44:48.128Z,10.23
2019-01-17T16:47:18.060Z,8.83
2019-01-17T16:49:47.946Z,8.97
2019-01-17T16:52:17.897Z,11.00
2019-01-17T16:54:47.823Z,10.47
2019-01-17T16:57:18.349Z,7.90
2019-01-17T16:59:48.207Z,8.03
2019-01-17T17:02:18.097Z,6.80
2019-01-17T17:04:48.842Z,6.70
2019-01-17T17:07:18.746Z,9.50
2019-01-17T17:09:48.607Z,6.47
2019-01-17T17:12:18.616Z,3.70
2019-01-17T17:14:48.556Z,4.97
2019-01-17T17:17:18.542Z,5.60
2019-01-17T17:19:48.379Z,5.10
2019-01-17T17:22:18.286Z,4.17
2019-01-17T17:24:48.146Z,7.57
2019-01-17T17:27:18.136Z,6.00
2019-01-17T17:29:48.199Z,6.87
2019-01-17T17:32:18.213Z,6.33
2019-01-17T17:34:50.092Z,7.43
2019-01-17T17:37:20.027Z,10.03
2019-01-17T17:39:49.887Z,10.93
2019-01-17T17:42:19.769Z,7.83
2019-01-17T17:44:49.735Z,10.50
2019-01-17T17:47:19.671Z,6.83
2019-01-17T17:49:49.787Z,4.47
2019-01-17T17:52:19.784Z,7.00
2019-01-17T17:54:49.633Z,4.10
2019-01-17T17:57:19.567Z,3.87
2019-01-17T17:59:49.502Z,4.90
2019-01-17T18:02:44.559Z,4.80
2019-01-17T18:05:14.507Z,6.57
2019-01-17T18:07:44.446Z,4.07
2019-01-17T18:10:15.048Z,8.23
2019-01-17T18:12:44.996Z,4.60
2019-01-17T18:15:15.423Z,6.00
2019-01-17T18:17:45.364Z,5.53
2019-01-17T18:20:15.403Z,6.17
2019-01-17T18:22:46.144Z,6.13
2019-01-17T18:25:16.178Z,10.53
2019-01-17T18:27:46.139Z,4.87
2019-01-17T18:30:18.646Z,6.47
2019-01-17T18:32:48.591Z,7.37
2019-01-17T18:35:18.530Z,14.70
2019-01-17T18:37:48.511Z,9.33
2019-01-17T18:40:18.494Z,9.93
2019-01-17T18:42:48.411Z,14.20
2019-01-17T18:45:19.586Z,10.07
2019-01-17T18:47:49.656Z,6.10
2019-01-17T18:50:30.247Z,8.27
2019-01-17T18:53:00.102Z,11.80
2019-01-17T18:55:31.760Z,6.70
2019-01-17T18:58:01.650Z,8.77
2019-01-17T19:00:32.643Z,7.90
2019-01-17T19:03:02.675Z,8.30
2019-01-17T19:05:32.706Z,11.10
2019-01-17T19:08:02.559Z,10.50
2019-01-17T19:10:32.559Z,7.50
2019-01-17T19:13:02.453Z,9.23
2019-01-17T19:15:33.722Z,5.73
2019-01-17T19:18:03.912Z,11.60
2019-01-17T19:20:34.033Z,10.63
2019-01-17T19:23:04.087Z,8.60
2019-01-17T19:25:33.916Z,8.90
2019-01-17T19:28:03.796Z,12.37
2019-01-17T19:30:33.668Z,12.93
2019-01-17T19:33:03.968Z,8.03
2019-01-17T19:35:33.975Z,10.20
2019-01-17T19:38:05.971Z,11.13
2019-01-17T19:40:35.856Z,7.87
2019-01-17T19:43:05.832Z,8.93
2019-01-17T19:45:35.930Z,7.70
2019-01-17T19:48:09.325Z,16.53
2019-01-17T19:50:39.614Z,6.13
2019-01-17T19:53:10.508Z,9.67
2019-01-17T19:55:40.359Z,8.53
2019-01-17T19:58:10.327Z,19.40
2019-01-17T20:00:40.350Z,10.90
2019-01-17T20:03:10.352Z,7.07
2019-01-17T20:05:40.335Z,10.53
2019-01-17T20:08:10.223Z,7.80
2019-01-17T20:10:40.114Z,11.27
2019-01-17T20:13:10.046Z,9.50
2019-01-17T20:15:39.983Z,9.33
2019-01-17T20:18:10.095Z,7.83
2019-01-17T20:20:39.938Z,15.17
2019-01-17T20:23:09.837Z,13.70
2019-01-17T20:25:39.760Z,9.37
2019-01-17T20:28:09.647Z,7.80
2019-01-17T20:30:39.626Z,6.83
2019-01-17T20:33:09.713Z,7.33
2019-01-17T20:35:39.627Z,8.50
2019-01-17T20:38:09.677Z,12.83
2019-01-17T20:40:39.508Z,8.90
2019-01-17T20:43:09.448Z,8.57
2019-01-17T20:45:39.298Z,8.87
2019-01-17T20:48:09.275Z,14.20
2019-01-17T20:50:39.212Z,9.13
2019-01-17T20:53:09.146Z,11.53
2019-01-17T20:55:39.339Z,8.53
2019-01-17T20:58:10.646Z,15.90
2019-01-17T21:01:05.002Z,6.90
2019-01-17T21:03:35.319Z,10.53
2019-01-17T21:06:05.346Z,8.83
2019-01-17T21:08:35.229Z,6.57
2019-01-17T21:11:05.404Z,13.23
2019-01-17T21:13:35.345Z,9.50
2019-01-17T21:16:05.271Z,8.60
2019-01-17T21:18:35.641Z,6.60
2019-01-17T21:21:05.501Z,10.63
2019-01-17T21:23:35.414Z,9.07
2019-01-17T21:26:05.336Z,9.33
2019-01-17T21:28:35.268Z,8.37
2019-01-17T21:31:05.104Z,7.17
2019-01-17T21:33:34.966Z,5.70
2019-01-17T21:36:05.066Z,14.43
2019-01-17T21:38:35.020Z,9.20
2019-01-17T21:41:04.916Z,12.23
2019-01-17T21:43:34.795Z,7.90
2019-01-17T21:46:05.367Z,6.93
2019-01-17T21:48:35.234Z,10.17
2019-01-17T21:51:05.153Z,8.70
2019-01-17T21:53:35.075Z,8.73
2019-01-17T21:56:05.009Z,16.23
2019-01-17T21:58:34.907Z,6.33
2019-01-17T22:01:04.850Z,8.33
2019-01-17T22:03:34.820Z,9.60
2019-01-17T22:06:04.798Z,7.07
2019-01-17T22:08:34.749Z,8.30
2019-01-17T22:11:04.593Z,8.60
2019-01-17T22:13:34.470Z,8.90
2019-01-17T22:16:04.389Z,12.43
2019-01-17T22:18:34.440Z,6.43
2019-01-17T22:21:04.345Z,10.83
2019-01-17T22:23:35.423Z,10.67
2019-01-17T22:26:05.421Z,7.83
2019-01-17T22:28:35.340Z,8.73
2019-01-17T22:31:05.229Z,6.97
2019-01-17T22:33:35.096Z,15.10
2019-01-17T22:36:04.943Z,16.43
2019-01-17T22:38:34.859Z,15.20
2019-01-17T22:41:04.791Z,9.03
2019-01-17T22:43:34.668Z,11.57
2019-01-17T22:46:04.583Z,10.40
2019-01-17T22:48:34.521Z,8.30
2019-01-17T22:51:04.511Z,11.67
2019-01-17T22:53:34.559Z,10.40
2019-01-17T22:56:04.442Z,12.93
2019-01-17T22:58:34.422Z,13.63
2019-01-17T23:01:18.022Z,12.07
2019-01-17T23:03:49.227Z,10.00
2019-01-17T23:06:19.182Z,9.17
2019-01-17T23:08:49.213Z,10.27
2019-01-17T23:11:19.248Z,13.00
2019-01-17T23:13:49.148Z,9.57
2019-01-17T23:16:19.113Z,9.97
2019-01-17T23:18:49.031Z,9.23
2019-01-17T23:21:19.022Z,7.07
2019-01-17T23:23:48.900Z,9.47
2019-01-17T23:26:18.758Z,7.57
2019-01-17T23:28:48.666Z,6.57
2019-01-17T23:31:18.545Z,6.30
2019-01-17T23:33:48.411Z,7.13
2019-01-17T23:36:18.260Z,6.07
2019-01-17T23:38:48.201Z,9.50
2019-01-17T23:41:18.131Z,6.60
2019-01-17T23:43:48.055Z,8.20
2019-01-17T23:46:18.591Z,12.67
2019-01-17T23:48:48.566Z,9.53
2019-01-17T23:51:18.419Z,12.00
2019-01-17T23:53:48.371Z,10.13
2019-01-17T23:56:18.299Z,9.43
2019-01-17T23:58:48.423Z,8.73
